Aviation Digital Data Service (ADDS)

Output produced by TAFs form (1129 UTC 19 January 2018)
found at http://www.aviationweather.gov/adds/tafs/
 
RJFO 191100Z 27004KT 7000 FEW050 07/03 Q1018
TAF RJFO 191106Z 1912/2018 29005KT 8000 FEW030